»·PEaware :: N133JB KFAT-KOAK

N133JB :: KFAT-KOAK

FLIGHT INFORMATION

Flight Status: Arrived
Operator: Privately registered:
United States
More flights under this callsign
Pilot: Justin B. (24218)
Aircraft: CESSNA 172 SKYHAWK
(C172)
More flights by this aircraft type
Origin: KFAT Fresno Yosemite Intl
United States
Destination: KOAK Metro Oakland Intl
United States
More flights between these airports :: More routes between these airports
Route: BULL3 NTELL PXN PXN6
File this flight plan on PilotEdge
Remarks:
Altitude:
(Current/Filed)
8,000ft
Speed:
(Current/Filed)
110kts
Departed: 06-Aug-21 08:27 PM
Arrived: 06-Aug-21 09:50 PM
Distance/Time
Traveled:
132nm/1:23
Distance/Time
To Go:
Arrived

Flight Plot

Page will automatically refresh every two minutes.

Flight plan parsing failed; only flown route is shown


Map Options




Map Legend


Flown Route
Filed Route
Departure Airport
Arrival Airport
Navaid (VOR, NDB)
Fix

Horizontal Profiles

Position Reports

Time Latitude Longitude Heading Altitude Ground
Speed
06-Aug-21 19:55 36.772674 -119.720657 12 339ft 0kts
06-Aug-21 19:56 36.772675 -119.720657 12 339ft 0kts
06-Aug-21 19:57 36.772675 -119.720657 12 339ft 0kts
06-Aug-21 19:58 36.772781 -119.720662 342 339ft 0kts
06-Aug-21 19:59 36.772782 -119.720662 342 339ft 0kts
06-Aug-21 20:00 36.772782 -119.720662 342 339ft 0kts
06-Aug-21 20:01 36.772782 -119.720662 342 339ft 0kts
06-Aug-21 20:02 36.772783 -119.720663 342 339ft 0kts
06-Aug-21 20:03 36.772783 -119.720663 342 339ft 0kts
06-Aug-21 20:04 36.772783 -119.720663 342 339ft 0kts
06-Aug-21 20:04 36.772783 -119.720663 342 339ft 0kts
06-Aug-21 20:06 36.772784 -119.720663 342 339ft 0kts
06-Aug-21 20:07 36.772784 -119.720663 342 339ft 0kts
06-Aug-21 20:08 36.772784 -119.720663 342 339ft 0kts
06-Aug-21 20:08 36.772785 -119.720663 342 339ft 0kts
06-Aug-21 20:09 36.772785 -119.720664 342 339ft 0kts
06-Aug-21 20:11 36.772785 -119.720664 342 339ft 0kts
06-Aug-21 20:11 36.772786 -119.720664 342 339ft 0kts
06-Aug-21 20:12 36.772786 -119.720664 342 339ft 0kts
06-Aug-21 20:14 36.773051 -119.720840 329 339ft 6kts
06-Aug-21 20:15 36.773967 -119.719968 127 339ft 18kts
06-Aug-21 20:15 36.772111 -119.716195 115 339ft 8kts
06-Aug-21 20:17 36.770180 -119.712440 122 339ft 32kts
06-Aug-21 20:17 36.769879 -119.710287 304 339ft 4kts
06-Aug-21 20:18 36.769893 -119.710315 300 339ft 0kts
06-Aug-21 20:19 36.769893 -119.710315 300 339ft 0kts
06-Aug-21 20:20 36.769893 -119.710316 300 339ft 0kts
06-Aug-21 20:21 36.769893 -119.710316 300 339ft 0kts
06-Aug-21 20:22 36.769894 -119.710317 301 339ft 0kts
06-Aug-21 20:23 36.769894 -119.710317 301 339ft 0kts
06-Aug-21 20:24 36.769894 -119.710318 301 339ft 0kts
06-Aug-21 20:25 36.770173 -119.710362 16 339ft 4kts
06-Aug-21 20:26 36.776140 -119.721814 310 514ft 92kts
06-Aug-21 20:27 36.792838 -119.747428 308 1344ft 91kts
06-Aug-21 20:28 36.810493 -119.772593 314 2176ft 98kts
06-Aug-21 20:29 36.830010 -119.795363 324 3019ft 93kts
06-Aug-21 20:30 36.848510 -119.818366 313 3867ft 93kts
06-Aug-21 20:31 36.865826 -119.842321 313 4672ft 92kts
06-Aug-21 20:32 36.882848 -119.865955 313 5430ft 90kts
06-Aug-21 20:33 36.897497 -119.890498 273 6127ft 91kts
06-Aug-21 20:34 36.893109 -119.921788 258 6764ft 91kts
06-Aug-21 20:35 36.886988 -119.952287 258 7345ft 89kts
06-Aug-21 20:36 36.880932 -119.982123 258 7870ft 88kts
06-Aug-21 20:37 36.874865 -120.011983 258 8383ft 89kts
06-Aug-21 20:38 36.868791 -120.041816 258 8880ft 88kts
06-Aug-21 20:39 36.862201 -120.074307 258 9014ft 108kts
06-Aug-21 20:40 36.854544 -120.111832 258 9003ft 112kts
06-Aug-21 20:41 36.846774 -120.149815 258 9003ft 113kts
06-Aug-21 20:42 36.839072 -120.187367 258 9082ft 109kts
06-Aug-21 20:43 36.831399 -120.224774 257 9086ft 112kts
06-Aug-21 20:44 36.823603 -120.262688 257 9086ft 112kts
06-Aug-21 20:45 36.815777 -120.300681 257 9086ft 112kts
06-Aug-21 20:46 36.807953 -120.338595 257 9086ft 112kts
06-Aug-21 20:47 36.800130 -120.376437 257 9086ft 112kts
06-Aug-21 20:48 36.792288 -120.414308 257 9086ft 112kts
06-Aug-21 20:49 36.784399 -120.452340 257 9086ft 112kts
06-Aug-21 20:50 36.776538 -120.490172 257 9086ft 112kts
06-Aug-21 20:51 36.768646 -120.528087 257 9086ft 113kts
06-Aug-21 20:52 36.760759 -120.565915 257 9086ft 113kts
06-Aug-21 20:53 36.752823 -120.603910 257 9086ft 113kts
06-Aug-21 20:54 36.744904 -120.641757 257 9086ft 113kts
06-Aug-21 20:55 36.736964 -120.679644 257 9086ft 113kts
06-Aug-21 20:56 36.729035 -120.717410 257 9086ft 113kts
06-Aug-21 20:57 36.721058 -120.755345 257 9086ft 113kts
06-Aug-21 20:58 36.726538 -120.789684 314 9089ft 108kts
06-Aug-21 20:59 36.748160 -120.815807 318 9085ft 108kts
06-Aug-21 21:00 36.770359 -120.841199 319 9086ft 108kts
06-Aug-21 21:01 36.792530 -120.866506 319 9086ft 108kts
06-Aug-21 21:02 36.814726 -120.891859 319 9086ft 108kts
06-Aug-21 21:03 36.836861 -120.917163 319 9086ft 108kts
06-Aug-21 21:04 36.859059 -120.942560 319 9086ft 108kts
06-Aug-21 21:05 36.881198 -120.967910 319 9086ft 108kts
06-Aug-21 21:06 36.903368 -120.993317 319 9086ft 108kts
06-Aug-21 21:07 36.925545 -121.018753 319 9086ft 108kts
06-Aug-21 21:08 36.947729 -121.044218 319 9086ft 108kts
06-Aug-21 21:09 36.969901 -121.069687 319 9069ft 109kts
06-Aug-21 21:10 36.992222 -121.095353 318 9067ft 108kts
06-Aug-21 21:11 37.014545 -121.121040 318 9067ft 109kts
06-Aug-21 21:12 37.036829 -121.146705 318 9067ft 109kts
06-Aug-21 21:13 37.059146 -121.172430 318 9067ft 109kts
06-Aug-21 21:14 37.081417 -121.198122 318 9067ft 109kts
06-Aug-21 21:15 37.103737 -121.223893 318 9067ft 109kts
06-Aug-21 21:16 37.126021 -121.249643 318 9067ft 109kts
06-Aug-21 21:17 37.148326 -121.275439 318 9067ft 109kts
06-Aug-21 21:18 37.170360 -121.301493 318 9067ft 109kts
06-Aug-21 21:19 37.192616 -121.327349 318 9067ft 109kts
06-Aug-21 21:20 37.214926 -121.353231 318 9067ft 109kts
06-Aug-21 21:21 37.237150 -121.379031 318 9067ft 109kts
06-Aug-21 21:22 37.259445 -121.404935 318 9067ft 109kts
06-Aug-21 21:23 37.281649 -121.430757 318 9067ft 109kts
06-Aug-21 21:24 37.303940 -121.456699 318 9067ft 109kts
06-Aug-21 21:25 37.326103 -121.482676 318 9067ft 109kts
06-Aug-21 21:26 37.348359 -121.508655 318 9067ft 109kts
06-Aug-21 21:27 37.370617 -121.534635 318 9067ft 109kts
06-Aug-21 21:28 37.393555 -121.561414 318 8850ft 119kts
06-Aug-21 21:29 37.417182 -121.592282 306 8360ft 125kts
06-Aug-21 21:30 37.437289 -121.626241 309 7853ft 116kts
06-Aug-21 21:31 37.456932 -121.658577 306 7354ft 116kts
06-Aug-21 21:32 37.476451 -121.691459 309 6855ft 117kts
06-Aug-21 21:33 37.496585 -121.723862 309 6357ft 117kts
06-Aug-21 21:34 37.516701 -121.756188 309 5934ft 114kts
06-Aug-21 21:35 37.535848 -121.787951 305 5609ft 116kts
06-Aug-21 21:36 37.555419 -121.819625 311 5356ft 111kts
06-Aug-21 21:37 37.575206 -121.848823 315 5356ft 111kts
06-Aug-21 21:38 37.597059 -121.879104 315 5003ft 120kts
06-Aug-21 21:39 37.620276 -121.909633 313 4555ft 121kts
06-Aug-21 21:40 37.640792 -121.942741 291 4102ft 121kts
06-Aug-21 21:41 37.651729 -121.983201 292 3498ft 119kts
06-Aug-21 21:42 37.664300 -122.020827 301 3130ft 116kts
06-Aug-21 21:43 37.675228 -122.060648 288 2537ft 121kts
06-Aug-21 21:44 37.687185 -122.098384 300 1652ft 111kts
06-Aug-21 21:45 37.698750 -122.127954 296 1264ft 88kts
06-Aug-21 21:46 37.707855 -122.154464 295 878ft 73kts
06-Aug-21 21:47 37.715704 -122.177680 301 424ft 72kts
06-Aug-21 21:48 37.722798 -122.199216 305 107ft 68kts
06-Aug-21 21:49 37.727309 -122.212373 295 9ft 6kts
06-Aug-21 21:50 37.728086 -122.213021 18 9ft 0kts
06-Aug-21 21:51 37.728087 -122.213020 18 9ft 0kts
06-Aug-21 21:52 37.729312 -122.212013 107 9ft 0kts

Navigation Log

Ident Type
Flight plan parsing failed, navigation log unavailable